createdAt,value
2022-08-07T00:02:48.880Z,17.72
2022-08-07T00:05:55.144Z,17.68
2022-08-07T00:09:16.316Z,18.10
2022-08-07T00:12:24.978Z,17.86
2022-08-07T00:15:38.277Z,17.28
2022-08-07T00:18:52.618Z,17.29
2022-08-07T00:22:02.145Z,17.28
2022-08-07T00:25:11.101Z,17.21
2022-08-07T00:28:23.815Z,18.04
2022-08-07T00:31:42.118Z,17.96
2022-08-07T00:34:49.427Z,18.07
2022-08-07T00:37:57.001Z,17.72
2022-08-07T00:41:03.865Z,17.86
2022-08-07T00:44:16.189Z,17.77
2022-08-07T00:48:08.737Z,17.40
2022-08-07T00:50:51.660Z,17.63
2022-08-07T00:53:57.976Z,17.67
2022-08-07T00:57:06.142Z,17.67
2022-08-07T01:00:13.227Z,17.63
2022-08-07T01:03:55.954Z,17.68
2022-08-07T01:06:48.087Z,17.70
2022-08-07T01:10:06.398Z,17.57
2022-08-07T01:13:17.538Z,16.49
2022-08-07T01:16:30.269Z,16.74
2022-08-07T01:19:39.912Z,16.37
2022-08-07T01:22:58.380Z,16.49
2022-08-07T01:26:20.195Z,16.59
2022-08-07T01:29:31.211Z,17.29
2022-08-07T01:32:37.921Z,17.34
2022-08-07T01:35:54.166Z,16.65
2022-08-07T01:39:09.430Z,16.69
2022-08-07T01:42:39.361Z,16.79
2022-08-07T01:45:43.589Z,17.24
2022-08-07T01:48:52.913Z,17.17
2022-08-07T01:52:04.893Z,16.31
2022-08-07T01:55:22.307Z,16.52
2022-08-07T01:58:33.849Z,16.18
2022-08-07T02:02:00.170Z,16.81
2022-08-07T02:05:16.179Z,16.95
2022-08-07T02:08:42.488Z,16.35
2022-08-07T02:12:03.288Z,16.48
2022-08-07T02:15:12.819Z,17.06
2022-08-07T02:18:21.671Z,17.12
2022-08-07T02:21:56.508Z,17.10
2022-08-07T02:25:07.098Z,17.45
2022-08-07T02:28:25.725Z,17.42
2022-08-07T02:31:35.356Z,17.46
2022-08-07T02:34:51.120Z,17.57
2022-08-07T02:38:00.051Z,17.71
2022-08-07T02:41:07.938Z,16.89
2022-08-07T02:44:19.815Z,16.59
2022-08-07T02:47:26.411Z,17.24
2022-08-07T02:50:38.758Z,17.51
2022-08-07T02:53:54.216Z,17.75
2022-08-07T02:57:03.604Z,17.41
2022-08-07T03:00:16.159Z,17.62
2022-08-07T03:03:29.624Z,16.69
2022-08-07T03:06:55.327Z,17.05
2022-08-07T03:10:02.275Z,17.14
2022-08-07T03:13:10.194Z,17.31
2022-08-07T03:16:18.773Z,16.79
2022-08-07T03:19:37.015Z,17.44
2022-08-07T03:22:50.278Z,17.43
2022-08-07T03:25:59.861Z,17.51
2022-08-07T03:29:11.045Z,17.39
2022-08-07T03:32:23.508Z,16.95
2022-08-07T03:35:43.421Z,17.44
2022-08-07T03:38:53.745Z,16.90
2022-08-07T03:42:00.797Z,16.95
2022-08-07T03:45:08.450Z,16.95
2022-08-07T03:48:16.878Z,16.50
2022-08-07T03:51:23.939Z,16.19
2022-08-07T03:54:54.080Z,16.35
2022-08-07T03:58:35.152Z,16.27
2022-08-07T04:01:33.245Z,16.44
2022-08-07T04:04:45.334Z,16.83
2022-08-07T04:07:52.756Z,17.22
2022-08-07T04:12:25.931Z,17.09
2022-08-07T04:14:37.794Z,16.75
2022-08-07T04:18:30.864Z,17.20
2022-08-07T04:21:15.013Z,17.56
2022-08-07T04:24:34.125Z,17.58
2022-08-07T04:27:44.304Z,17.76
2022-08-07T04:30:57.076Z,18.02
2022-08-07T04:34:05.158Z,18.29
2022-08-07T04:37:25.049Z,18.11
2022-08-07T04:40:35.172Z,18.53
2022-08-07T04:44:14.486Z,18.45
2022-08-07T04:47:57.123Z,18.74
2022-08-07T04:50:52.974Z,18.94
2022-08-07T04:54:09.460Z,19.22
2022-08-07T04:58:09.706Z,19.44
2022-08-07T05:00:56.560Z,19.71
2022-08-07T05:04:17.105Z,19.82
2022-08-07T05:07:30.613Z,20.07
2022-08-07T05:10:48.756Z,20.31
2022-08-07T05:14:53.679Z,20.43
2022-08-07T05:18:00.908Z,20.50
2022-08-07T05:21:00.414Z,20.79
2022-08-07T05:24:13.142Z,21.02
2022-08-07T05:28:02.075Z,21.21
2022-08-07T05:30:50.227Z,21.43
2022-08-07T05:34:04.311Z,21.70
2022-08-07T05:37:11.904Z,22.10
2022-08-07T05:40:20.419Z,22.35
2022-08-07T05:44:01.271Z,22.24
2022-08-07T05:46:54.856Z,22.50
2022-08-07T05:50:03.403Z,22.63
2022-08-07T05:54:12.566Z,22.60
2022-08-07T05:56:38.236Z,22.54
2022-08-07T05:59:57.881Z,23.32
2022-08-07T06:03:08.083Z,23.78
2022-08-07T06:06:18.856Z,23.35
2022-08-07T06:10:04.400Z,23.61
2022-08-07T06:12:52.877Z,24.32
2022-08-07T06:16:04.859Z,24.53
2022-08-07T06:19:18.010Z,24.55
2022-08-07T06:22:40.253Z,24.69
2022-08-07T06:25:54.492Z,25.05
2022-08-07T06:29:06.543Z,24.96
2022-08-07T06:32:14.315Z,25.32
2022-08-07T06:35:23.211Z,25.67
2022-08-07T06:38:36.800Z,25.53
2022-08-07T06:42:02.605Z,25.95
2022-08-07T06:45:18.070Z,26.25
2022-08-07T06:48:26.655Z,26.12
2022-08-07T06:51:36.274Z,26.50
2022-08-07T06:55:33.772Z,26.81
2022-08-07T06:58:27.589Z,26.72
2022-08-07T07:01:44.049Z,27.15
2022-08-07T07:04:59.035Z,27.55
2022-08-07T07:08:12.470Z,27.14
2022-08-07T07:12:09.983Z,27.21
2022-08-07T07:15:03.418Z,27.47
2022-08-07T07:18:19.079Z,27.57
2022-08-07T07:22:05.071Z,26.96
2022-08-07T07:26:35.471Z,26.31
2022-08-07T07:29:38.978Z,26.04
2022-08-07T07:32:15.430Z,26.46
2022-08-07T07:35:23.922Z,26.52
2022-08-07T07:38:43.515Z,26.84
2022-08-07T07:42:12.923Z,26.26
2022-08-07T07:45:24.479Z,26.54
2022-08-07T07:48:59.943Z,26.18
2022-08-07T07:52:17.200Z,26.21
2022-08-07T07:55:27.459Z,26.39
2022-08-07T07:58:45.631Z,26.54
2022-08-07T08:02:01.529Z,26.51
2022-08-07T08:05:15.021Z,26.99
2022-08-07T08:08:36.315Z,27.26
2022-08-07T08:11:59.157Z,26.63
2022-08-07T08:15:10.695Z,26.41
2022-08-07T08:18:18.679Z,26.36
2022-08-07T08:22:00.567Z,26.21
2022-08-07T08:25:42.330Z,26.33
2022-08-07T08:28:59.361Z,26.12
2022-08-07T08:32:18.693Z,26.08
2022-08-07T08:35:39.447Z,26.95
2022-08-07T08:39:01.616Z,26.80
2022-08-07T08:42:19.569Z,28.04
2022-08-07T08:45:41.969Z,28.14
2022-08-07T08:49:10.743Z,27.66
2022-08-07T08:52:23.556Z,27.69
2022-08-07T08:55:55.211Z,27.51
2022-08-07T08:59:13.601Z,27.50
2022-08-07T09:02:36.535Z,27.62
2022-08-07T09:05:50.707Z,27.37
2022-08-07T09:09:20.823Z,27.20
2022-08-07T09:12:53.642Z,27.20
2022-08-07T09:16:21.840Z,26.69
2022-08-07T09:19:52.724Z,26.30
2022-08-07T09:24:31.727Z,26.55
2022-08-07T09:26:47.654Z,26.51
2022-08-07T09:30:08.460Z,26.49
2022-08-07T09:33:53.118Z,26.38
2022-08-07T09:37:04.348Z,26.36
2022-08-07T09:40:21.933Z,26.26
2022-08-07T09:44:03.178Z,26.29
2022-08-07T09:47:51.832Z,26.30
2022-08-07T09:50:52.612Z,27.06
2022-08-07T09:54:03.823Z,26.85
2022-08-07T09:57:46.495Z,26.80
2022-08-07T10:01:04.182Z,26.38
2022-08-07T10:04:32.759Z,26.12
2022-08-07T10:07:53.012Z,26.37
2022-08-07T10:11:59.542Z,26.16
2022-08-07T10:15:15.475Z,25.96
2022-08-07T10:18:46.527Z,25.77
2022-08-07T10:22:15.600Z,26.31
2022-08-07T10:25:43.123Z,26.29
2022-08-07T10:29:14.498Z,25.93
2022-08-07T10:32:51.180Z,26.57
2022-08-07T10:36:17.025Z,26.44
2022-08-07T10:39:41.942Z,26.43
2022-08-07T10:43:07.355Z,25.95
2022-08-07T10:46:20.772Z,25.73
2022-08-07T10:49:49.186Z,25.84
2022-08-07T10:53:11.371Z,26.05
2022-08-07T10:56:32.989Z,25.95
2022-08-07T11:00:03.799Z,26.02
2022-08-07T11:03:18.260Z,26.18
2022-08-07T11:06:33.214Z,26.57
2022-08-07T11:10:08.774Z,26.47
2022-08-07T11:14:42.581Z,25.96
2022-08-07T11:16:55.658Z,26.14
2022-08-07T11:20:12.653Z,26.16
2022-08-07T11:23:36.293Z,26.54
2022-08-07T11:26:51.390Z,26.38
2022-08-07T11:30:17.649Z,25.70
2022-08-07T11:33:59.770Z,26.39
2022-08-07T11:37:18.438Z,26.25
2022-08-07T11:40:46.015Z,25.90
2022-08-07T11:44:12.107Z,25.94
2022-08-07T11:47:39.059Z,25.73
2022-08-07T11:51:40.856Z,25.41
2022-08-07T11:54:59.873Z,25.69
2022-08-07T11:58:18.094Z,25.63
2022-08-07T12:01:59.021Z,25.39
2022-08-07T12:05:15.231Z,25.66
2022-08-07T12:08:34.599Z,25.56
2022-08-07T12:12:09.450Z,25.37
2022-08-07T12:16:05.294Z,25.25
2022-08-07T12:18:52.460Z,25.43
2022-08-07T12:22:37.447Z,25.72
2022-08-07T12:26:03.132Z,25.51
2022-08-07T12:29:37.776Z,26.72
2022-08-07T12:32:53.682Z,27.05
2022-08-07T12:36:02.347Z,26.93
2022-08-07T12:39:42.291Z,26.44
2022-08-07T12:42:38.035Z,26.37
2022-08-07T12:46:16.003Z,26.19
2022-08-07T12:49:51.561Z,25.95
2022-08-07T12:53:05.328Z,26.05
2022-08-07T12:56:28.950Z,26.11
2022-08-07T12:59:55.264Z,26.42
2022-08-07T13:03:26.821Z,26.66
2022-08-07T13:07:01.800Z,26.45
2022-08-07T13:10:39.497Z,26.05
2022-08-07T13:14:03.404Z,26.27
2022-08-07T13:17:18.234Z,26.29
2022-08-07T13:20:51.015Z,26.27
2022-08-07T13:24:07.444Z,26.28
2022-08-07T13:27:22.021Z,25.91
2022-08-07T13:30:41.051Z,26.41
2022-08-07T13:34:34.616Z,26.31
2022-08-07T13:37:33.362Z,26.70
2022-08-07T13:40:56.334Z,26.57
2022-08-07T13:44:10.549Z,26.67
2022-08-07T13:47:25.375Z,26.87
2022-08-07T13:50:45.148Z,26.55
2022-08-07T13:54:04.587Z,26.40
2022-08-07T13:57:14.544Z,26.31
2022-08-07T14:00:39.727Z,26.56
2022-08-07T14:04:07.194Z,26.12
2022-08-07T14:07:16.259Z,26.08
2022-08-07T14:10:28.015Z,26.07
2022-08-07T14:13:36.737Z,26.21
2022-08-07T14:16:56.437Z,25.98
2022-08-07T14:20:42.842Z,26.00
2022-08-07T14:24:00.262Z,25.78
2022-08-07T14:28:11.842Z,25.72
2022-08-07T14:30:40.680Z,25.75
2022-08-07T14:33:48.740Z,25.92
2022-08-07T14:36:56.225Z,26.11
2022-08-07T14:40:16.924Z,26.17
2022-08-07T14:43:58.834Z,26.81
2022-08-07T14:47:08.471Z,27.30
2022-08-07T14:54:30.284Z,28.03
2022-08-07T14:57:20.611Z,27.84
2022-08-07T15:00:31.823Z,27.93
2022-08-07T15:03:52.719Z,27.35
2022-08-07T15:07:00.907Z,27.67
2022-08-07T15:13:39.200Z,27.37
2022-08-07T15:20:34.063Z,26.61
2022-08-07T15:25:02.348Z,26.68
2022-08-07T15:27:18.002Z,26.51
2022-08-07T15:30:26.409Z,26.27
2022-08-07T15:33:43.029Z,26.17
2022-08-07T15:37:04.186Z,25.99
2022-08-07T15:40:34.126Z,25.89
2022-08-07T15:47:16.953Z,25.61
2022-08-07T15:53:58.991Z,25.74
2022-08-07T15:57:10.588Z,25.61
2022-08-07T16:00:39.941Z,25.47
2022-08-07T16:03:58.313Z,25.26
2022-08-07T16:08:31.519Z,25.19
2022-08-07T16:10:37.601Z,25.12
2022-08-07T16:13:58.884Z,25.28
2022-08-07T16:18:02.525Z,24.90
2022-08-07T16:20:55.160Z,25.04
2022-08-07T16:24:34.652Z,25.15
2022-08-07T16:27:57.302Z,24.98
2022-08-07T16:31:49.966Z,24.99
2022-08-07T16:34:56.771Z,24.80
2022-08-07T16:38:44.103Z,24.74
2022-08-07T16:42:09.479Z,24.98
2022-08-07T16:46:11.002Z,24.91
2022-08-07T16:50:28.508Z,24.85
2022-08-07T16:54:01.603Z,24.68
2022-08-07T16:57:03.895Z,24.66
2022-08-07T17:00:15.385Z,24.67
2022-08-07T17:03:59.413Z,24.67
2022-08-07T17:07:02.734Z,24.47
2022-08-07T17:10:32.846Z,24.52
2022-08-07T17:14:18.387Z,24.60
2022-08-07T17:17:44.103Z,24.41
2022-08-07T17:20:54.824Z,24.34
2022-08-07T17:24:23.511Z,24.28
2022-08-07T17:27:51.191Z,24.21
2022-08-07T17:31:16.137Z,24.02
2022-08-07T17:34:35.069Z,24.02
2022-08-07T17:38:05.817Z,23.92
2022-08-07T17:42:03.778Z,23.96
2022-08-07T17:44:51.710Z,23.90
2022-08-07T17:48:06.799Z,23.89
2022-08-07T17:51:22.987Z,23.85
2022-08-07T17:54:40.028Z,23.78
2022-08-07T17:58:05.092Z,23.69
2022-08-07T18:01:20.718Z,23.96
2022-08-07T18:04:35.530Z,23.89
2022-08-07T18:07:53.491Z,23.53
2022-08-07T18:12:16.319Z,23.62
2022-08-07T18:14:46.140Z,23.39
2022-08-07T18:18:33.142Z,23.37
2022-08-07T18:21:51.722Z,23.36
2022-08-07T18:25:01.791Z,23.24
2022-08-07T18:28:57.590Z,23.07
2022-08-07T18:32:26.291Z,23.19
2022-08-07T18:35:51.596Z,22.78
2022-08-07T18:40:06.998Z,22.73
2022-08-07T18:43:00.399Z,22.57
2022-08-07T18:46:22.357Z,22.43
2022-08-07T18:50:31.611Z,22.32
2022-08-07T18:53:16.424Z,22.16
2022-08-07T18:56:33.792Z,22.16
2022-08-07T19:00:00.561Z,22.26
2022-08-07T19:03:18.831Z,22.26
2022-08-07T19:06:33.877Z,22.29
2022-08-07T19:09:56.149Z,22.27
2022-08-07T19:13:11.654Z,22.36
2022-08-07T19:17:00.432Z,22.23
2022-08-07T19:20:04.666Z,22.17
2022-08-07T19:23:19.493Z,22.32
2022-08-07T19:27:16.835Z,22.14
2022-08-07T19:31:05.898Z,22.10
2022-08-07T19:33:58.131Z,21.79
2022-08-07T19:37:10.202Z,21.81
2022-08-07T19:40:30.464Z,22.02
2022-08-07T19:43:49.137Z,22.12
2022-08-07T19:47:06.892Z,22.12
2022-08-07T19:50:43.940Z,22.10
2022-08-07T19:54:35.556Z,22.07
2022-08-07T19:58:01.225Z,22.11
2022-08-07T20:00:55.274Z,22.09
2022-08-07T20:04:03.111Z,22.00
2022-08-07T20:07:14.440Z,22.00
2022-08-07T20:10:52.362Z,21.99
2022-08-07T20:14:03.294Z,21.98
2022-08-07T20:17:14.840Z,21.96
2022-08-07T20:20:26.435Z,21.86
2022-08-07T20:23:42.947Z,21.91
2022-08-07T20:26:58.302Z,21.96
2022-08-07T20:30:11.100Z,21.95
2022-08-07T20:33:24.382Z,21.95
2022-08-07T20:36:50.685Z,21.81
2022-08-07T20:40:05.041Z,21.50
2022-08-07T20:43:31.103Z,21.56
2022-08-07T20:46:43.799Z,21.67
2022-08-07T20:49:59.988Z,21.64
2022-08-07T20:53:15.675Z,21.28
2022-08-07T20:56:26.586Z,21.15
2022-08-07T21:00:07.543Z,21.05
2022-08-07T21:03:03.350Z,21.40
2022-08-07T21:06:26.083Z,21.63
2022-08-07T21:09:52.397Z,21.49
2022-08-07T21:13:11.716Z,21.48
2022-08-07T21:16:20.764Z,21.16
2022-08-07T21:20:00.692Z,21.12
2022-08-07T21:23:07.638Z,21.06
2022-08-07T21:26:34.784Z,21.12
2022-08-07T21:29:53.402Z,21.05
2022-08-07T21:33:13.092Z,21.07
2022-08-07T21:36:31.751Z,20.95
2022-08-07T21:39:51.799Z,20.94
2022-08-07T21:43:06.486Z,20.78
2022-08-07T21:46:24.774Z,20.52
2022-08-07T21:50:01.235Z,20.77
2022-08-07T21:53:17.218Z,20.84
2022-08-07T21:56:40.288Z,20.82
2022-08-07T22:00:08.614Z,20.50
2022-08-07T22:03:31.235Z,20.06
2022-08-07T22:06:45.039Z,19.72
2022-08-07T22:09:55.392Z,19.85
2022-08-07T22:13:05.917Z,20.11
2022-08-07T22:16:42.255Z,20.03
2022-08-07T22:20:05.196Z,20.00
2022-08-07T22:23:21.748Z,19.71
2022-08-07T22:26:40.097Z,19.62
2022-08-07T22:29:55.972Z,19.76
2022-08-07T22:33:06.141Z,19.58
2022-08-07T22:36:27.855Z,19.43
2022-08-07T22:39:52.672Z,19.55
2022-08-07T22:43:06.812Z,19.48
2022-08-07T22:47:03.938Z,19.37
2022-08-07T22:50:33.511Z,19.42
2022-08-07T22:54:07.767Z,19.33
2022-08-07T22:57:40.908Z,18.63
2022-08-07T23:00:59.188Z,18.63
2022-08-07T23:04:29.985Z,18.66
2022-08-07T23:07:53.997Z,18.08
2022-08-07T23:11:16.291Z,17.96
2022-08-07T23:14:37.550Z,18.16
2022-08-07T23:18:03.760Z,17.78
2022-08-07T23:21:30.199Z,17.73
2022-08-07T23:24:47.661Z,17.93
2022-08-07T23:28:34.889Z,17.88
2022-08-07T23:34:21.524Z,18.25
2022-08-07T23:35:23.466Z,18.33
2022-08-07T23:38:54.658Z,18.18
2022-08-07T23:42:15.687Z,18.59
2022-08-07T23:45:33.466Z,18.29
2022-08-07T23:49:20.775Z,18.06
2022-08-07T23:53:05.181Z,18.27
2022-08-07T23:56:11.724Z,18.43
